sensor_id;sensor_type;location;lat;lon;timestamp;temperature;humidity
66156;DHT22;52957;50.848;20.656;2024-01-27T00:00:06;27;79
66156;DHT22;52957;50.848;20.656;2024-01-27T00:10:13;27;78
66156;DHT22;52957;50.848;20.656;2024-01-27T00:20:14;27;78
66156;DHT22;52957;50.848;20.656;2024-01-27T00:30:18;27;78
66156;DHT22;52957;50.848;20.656;2024-01-27T00:40:07;27;78
66156;DHT22;52957;50.848;20.656;2024-01-27T00:50:13;27;78
66156;DHT22;52957;50.848;20.656;2024-01-27T01:00:22;27;78
66156;DHT22;52957;50.848;20.656;2024-01-27T01:10:06;27;77
66156;DHT22;52957;50.848;20.656;2024-01-27T01:20:03;27;77
66156;DHT22;52957;50.848;20.656;2024-01-27T01:30:20;27;77
66156;DHT22;52957;50.848;20.656;2024-01-27T01:40:06;27;77
66156;DHT22;52957;50.848;20.656;2024-01-27T01:50:27;27;77
66156;DHT22;52957;50.848;20.656;2024-01-27T02:00:23;27;77
66156;DHT22;52957;50.848;20.656;2024-01-27T02:10:17;27;76
66156;DHT22;52957;50.848;20.656;2024-01-27T02:20:18;27;76
66156;DHT22;52957;50.848;20.656;2024-01-27T02:30:06;27;76
66156;DHT22;52957;50.848;20.656;2024-01-27T02:40:09;27;76
66156;DHT22;52957;50.848;20.656;2024-01-27T02:50:15;27;76
66156;DHT22;52957;50.848;20.656;2024-01-27T03:00:02;27;76
66156;DHT22;52957;50.848;20.656;2024-01-27T03:10:05;27;76
66156;DHT22;52957;50.848;20.656;2024-01-27T03:20:12;27;76
66156;DHT22;52957;50.848;20.656;2024-01-27T03:30:04;27;76
66156;DHT22;52957;50.848;20.656;2024-01-27T03:40:16;27;76
66156;DHT22;52957;50.848;20.656;2024-01-27T03:50:16;27;76
66156;DHT22;52957;50.848;20.656;2024-01-27T04:00:16;27;76
66156;DHT22;52957;50.848;20.656;2024-01-27T04:10:18;27;76
66156;DHT22;52957;50.848;20.656;2024-01-27T04:20:06;27;76
66156;DHT22;52957;50.848;20.656;2024-01-27T04:30:11;27;76
66156;DHT22;52957;50.848;20.656;2024-01-27T04:40:10;27;76
66156;DHT22;52957;50.848;20.656;2024-01-27T04:50:05;27;76
66156;DHT22;52957;50.848;20.656;2024-01-27T05:00:22;27;76
66156;DHT22;52957;50.848;20.656;2024-01-27T05:10:26;27;76
66156;DHT22;52957;50.848;20.656;2024-01-27T05:20:15;27;76
66156;DHT22;52957;50.848;20.656;2024-01-27T05:30:20;27;76
66156;DHT22;52957;50.848;20.656;2024-01-27T05:40:19;27;76
66156;DHT22;52957;50.848;20.656;2024-01-27T05:50:09;27;76
66156;DHT22;52957;50.848;20.656;2024-01-27T06:00:22;27;76
66156;DHT22;52957;50.848;20.656;2024-01-27T06:10:07;26;78
66156;DHT22;52957;50.848;20.656;2024-01-27T06:20:06;26;78
66156;DHT22;52957;50.848;20.656;2024-01-27T06:30:12;26;78
66156;DHT22;52957;50.848;20.656;2024-01-27T06:40:02;26;78
66156;DHT22;52957;50.848;20.656;2024-01-27T06:50:18;26;78
66156;DHT22;52957;50.848;20.656;2024-01-27T07:00:15;26;78
66156;DHT22;52957;50.848;20.656;2024-01-27T07:10:15;27;78
66156;DHT22;52957;50.848;20.656;2024-01-27T07:20:17;27;78
66156;DHT22;52957;50.848;20.656;2024-01-27T07:30:15;27;78
66156;DHT22;52957;50.848;20.656;2024-01-27T07:40:20;27;78
66156;DHT22;52957;50.848;20.656;2024-01-27T07:50:03;27;78
66156;DHT22;52957;50.848;20.656;2024-01-27T08:00:03;27;78
66156;DHT22;52957;50.848;20.656;2024-01-27T08:10:26;27;77
66156;DHT22;52957;50.848;20.656;2024-01-27T08:20:16;27;77
66156;DHT22;52957;50.848;20.656;2024-01-27T08:30:17;27;77
66156;DHT22;52957;50.848;20.656;2024-01-27T08:40:10;27;77
66156;DHT22;52957;50.848;20.656;2024-01-27T08:50:12;27;77
66156;DHT22;52957;50.848;20.656;2024-01-27T09:00:13;27;77
66156;DHT22;52957;50.848;20.656;2024-01-27T09:10:16;27;76
66156;DHT22;52957;50.848;20.656;2024-01-27T09:20:08;27;76
66156;DHT22;52957;50.848;20.656;2024-01-27T09:30:17;27;76
66156;DHT22;52957;50.848;20.656;2024-01-27T09:40:03;27;76
66156;DHT22;52957;50.848;20.656;2024-01-27T09:50:19;27;76
66156;DHT22;52957;50.848;20.656;2024-01-27T10:00:06;27;76
66156;DHT22;52957;50.848;20.656;2024-01-27T10:20:30;27;76
66156;DHT22;52957;50.848;20.656;2024-01-27T10:30:06;27;76
66156;DHT22;52957;50.848;20.656;2024-01-27T10:40:09;27;76
66156;DHT22;52957;50.848;20.656;2024-01-27T10:50:10;27;76
66156;DHT22;52957;50.848;20.656;2024-01-27T11:00:17;27;76
66156;DHT22;52957;50.848;20.656;2024-01-27T11:10:07;27;75
66156;DHT22;52957;50.848;20.656;2024-01-27T11:20:12;27;75
66156;DHT22;52957;50.848;20.656;2024-01-27T11:30:03;27;75
66156;DHT22;52957;50.848;20.656;2024-01-27T11:50:08;27;75
66156;DHT22;52957;50.848;20.656;2024-01-27T12:00:14;27;75
66156;DHT22;52957;50.848;20.656;2024-01-27T12:10:11;27;74
66156;DHT22;52957;50.848;20.656;2024-01-27T12:20:36;27;74
66156;DHT22;52957;50.848;20.656;2024-01-27T12:30:09;27;74
66156;DHT22;52957;50.848;20.656;2024-01-27T12:40:28;27;74
66156;DHT22;52957;50.848;20.656;2024-01-27T12:50:05;27;74
66156;DHT22;52957;50.848;20.656;2024-01-27T13:00:11;27;74
66156;DHT22;52957;50.848;20.656;2024-01-27T13:10:07;27;73
66156;DHT22;52957;50.848;20.656;2024-01-27T13:20:09;27;73
66156;DHT22;52957;50.848;20.656;2024-01-27T13:30:15;27;73
66156;DHT22;52957;50.848;20.656;2024-01-27T13:40:18;27;73
66156;DHT22;52957;50.848;20.656;2024-01-27T13:50:11;27;73
66156;DHT22;52957;50.848;20.656;2024-01-27T14:00:03;27;73
66156;DHT22;52957;50.848;20.656;2024-01-27T14:10:05;27;73
66156;DHT22;52957;50.848;20.656;2024-01-27T14:20:04;27;73
66156;DHT22;52957;50.848;20.656;2024-01-27T14:30:06;27;73
66156;DHT22;52957;50.848;20.656;2024-01-27T14:50:15;27;73
66156;DHT22;52957;50.848;20.656;2024-01-27T15:00:56;27;73
66156;DHT22;52957;50.848;20.656;2024-01-27T15:10:06;27;71
66156;DHT22;52957;50.848;20.656;2024-01-27T15:20:15;27;71
66156;DHT22;52957;50.848;20.656;2024-01-27T15:30:03;27;71
66156;DHT22;52957;50.848;20.656;2024-01-27T15:40:06;27;71
66156;DHT22;52957;50.848;20.656;2024-01-27T15:50:07;27;71
66156;DHT22;52957;50.848;20.656;2024-01-27T16:00:14;27;71
66156;DHT22;52957;50.848;20.656;2024-01-27T16:20:18;28;70
66156;DHT22;52957;50.848;20.656;2024-01-27T16:30:12;28;70
66156;DHT22;52957;50.848;20.656;2024-01-27T16:50:19;28;70
66156;DHT22;52957;50.848;20.656;2024-01-27T17:00:20;28;70
66156;DHT22;52957;50.848;20.656;2024-01-27T17:10:07;28;70
66156;DHT22;52957;50.848;20.656;2024-01-27T17:20:13;28;69
66156;DHT22;52957;50.848;20.656;2024-01-27T17:30:18;28;69
66156;DHT22;52957;50.848;20.656;2024-01-27T17:50:15;28;69
66156;DHT22;52957;50.848;20.656;2024-01-27T18:00:13;28;69
66156;DHT22;52957;50.848;20.656;2024-01-27T18:20:20;27;74
66156;DHT22;52957;50.848;20.656;2024-01-27T18:30:13;27;74
66156;DHT22;52957;50.848;20.656;2024-01-27T18:40:15;27;74
66156;DHT22;52957;50.848;20.656;2024-01-27T18:50:15;27;74
66156;DHT22;52957;50.848;20.656;2024-01-27T19:00:19;27;74
66156;DHT22;52957;50.848;20.656;2024-01-27T19:10:14;27;74
66156;DHT22;52957;50.848;20.656;2024-01-27T19:20:14;27;74
66156;DHT22;52957;50.848;20.656;2024-01-27T19:30:10;27;74
66156;DHT22;52957;50.848;20.656;2024-01-27T19:40:21;27;74
66156;DHT22;52957;50.848;20.656;2024-01-27T19:50:15;27;74
66156;DHT22;52957;50.848;20.656;2024-01-27T20:00:33;27;74
66156;DHT22;52957;50.848;20.656;2024-01-27T20:10:09;27;74
66156;DHT22;52957;50.848;20.656;2024-01-27T20:20:12;27;79
66156;DHT22;52957;50.848;20.656;2024-01-27T20:30:20;27;79
66156;DHT22;52957;50.848;20.656;2024-01-27T20:40:02;27;79
66156;DHT22;52957;50.848;20.656;2024-01-27T20:50:07;27;79
66156;DHT22;52957;50.848;20.656;2024-01-27T21:00:16;27;79
66156;DHT22;52957;50.848;20.656;2024-01-27T21:10:09;27;79
66156;DHT22;52957;50.848;20.656;2024-01-27T21:20:07;27;79
66156;DHT22;52957;50.848;20.656;2024-01-27T21:30:02;27;79
66156;DHT22;52957;50.848;20.656;2024-01-27T21:40:06;27;79
66156;DHT22;52957;50.848;20.656;2024-01-27T21:50:13;27;79
66156;DHT22;52957;50.848;20.656;2024-01-27T22:00:07;27;79
66156;DHT22;52957;50.848;20.656;2024-01-27T22:10:03;27;79
66156;DHT22;52957;50.848;20.656;2024-01-27T22:20:10;27;77
66156;DHT22;52957;50.848;20.656;2024-01-27T22:30:03;27;77
66156;DHT22;52957;50.848;20.656;2024-01-27T22:40:13;27;77
66156;DHT22;52957;50.848;20.656;2024-01-27T22:50:03;27;77
66156;DHT22;52957;50.848;20.656;2024-01-27T23:00:40;27;77
66156;DHT22;52957;50.848;20.656;2024-01-27T23:10:06;27;76
66156;DHT22;52957;50.848;20.656;2024-01-27T23:20:11;27;76
66156;DHT22;52957;50.848;20.656;2024-01-27T23:30:13;27;76
66156;DHT22;52957;50.848;20.656;2024-01-27T23:40:12;27;76
66156;DHT22;52957;50.848;20.656;2024-01-27T23:50:17;27;76
